sensor_id;sensor_type;location;lat;lon;timestamp;pressure;altitude;pressure_sealevel;temperature;humidity
15794;BME280;7999;51.208;4.244;2023-02-10T00:02:01;103607.97;;;1.43;100.00
15794;BME280;7999;51.208;4.244;2023-02-10T00:04:28;103608.63;;;1.41;100.00
15794;BME280;7999;51.208;4.244;2023-02-10T00:06:55;103608.25;;;1.26;100.00
15794;BME280;7999;51.208;4.244;2023-02-10T00:09:21;103608.25;;;1.26;100.00
15794;BME280;7999;51.208;4.244;2023-02-10T00:11:48;103594.56;;;1.15;100.00
15794;BME280;7999;51.208;4.244;2023-02-10T00:14:26;103609.53;;;1.21;100.00
15794;BME280;7999;51.208;4.244;2023-02-10T00:16:54;103608.28;;;1.16;100.00
15794;BME280;7999;51.208;4.244;2023-02-10T00:19:21;103613.16;;;1.13;100.00
15794;BME280;7999;51.208;4.244;2023-02-10T00:21:48;103614.69;;;1.11;100.00
15794;BME280;7999;51.208;4.244;2023-02-10T00:24:15;103615.47;;;1.10;100.00
15794;BME280;7999;51.208;4.244;2023-02-10T00:26:42;103616.47;;;1.02;100.00
15794;BME280;7999;51.208;4.244;2023-02-10T00:29:09;103615.59;;;1.01;100.00
15794;BME280;7999;51.208;4.244;2023-02-10T00:31:39;103620.06;;;1.04;100.00
15794;BME280;7999;51.208;4.244;2023-02-10T00:34:05;103616.75;;;0.95;100.00
15794;BME280;7999;51.208;4.244;2023-02-10T00:36:32;103606.91;;;0.89;100.00
15794;BME280;7999;51.208;4.244;2023-02-10T00:39:00;103614.97;;;0.93;100.00
15794;BME280;7999;51.208;4.244;2023-02-10T00:41:27;103603.03;;;0.94;100.00
15794;BME280;7999;51.208;4.244;2023-02-10T00:43:54;103605.47;;;0.92;100.00
15794;BME280;7999;51.208;4.244;2023-02-10T00:46:21;103596.50;;;0.98;100.00
15794;BME280;7999;51.208;4.244;2023-02-10T00:48:49;103607.00;;;1.11;100.00
15794;BME280;7999;51.208;4.244;2023-02-10T00:51:16;103607.47;;;1.27;100.00
15794;BME280;7999;51.208;4.244;2023-02-10T00:53:43;103605.53;;;1.35;100.00
15794;BME280;7999;51.208;4.244;2023-02-10T00:56:10;103609.25;;;1.38;100.00
15794;BME280;7999;51.208;4.244;2023-02-10T00:58:37;103610.53;;;1.33;100.00
15794;BME280;7999;51.208;4.244;2023-02-10T01:01:04;103613.63;;;1.29;100.00
15794;BME280;7999;51.208;4.244;2023-02-10T01:03:31;103616.78;;;1.37;100.00
15794;BME280;7999;51.208;4.244;2023-02-10T01:05:59;103623.47;;;1.35;100.00
15794;BME280;7999;51.208;4.244;2023-02-10T01:08:25;103628.47;;;1.43;100.00
15794;BME280;7999;51.208;4.244;2023-02-10T01:10:57;103622.84;;;1.37;100.00
15794;BME280;7999;51.208;4.244;2023-02-10T01:13:24;103633.72;;;1.35;100.00
15794;BME280;7999;51.208;4.244;2023-02-10T01:15:50;103628.75;;;1.26;100.00
15794;BME280;7999;51.208;4.244;2023-02-10T01:18:17;103627.97;;;1.27;100.00
15794;BME280;7999;51.208;4.244;2023-02-10T01:20:44;103630.78;;;1.30;100.00
15794;BME280;7999;51.208;4.244;2023-02-10T01:23:12;103638.22;;;1.37;100.00
15794;BME280;7999;51.208;4.244;2023-02-10T01:25:39;103638.47;;;1.40;100.00
15794;BME280;7999;51.208;4.244;2023-02-10T01:28:05;103636.03;;;1.42;100.00
15794;BME280;7999;51.208;4.244;2023-02-10T01:30:32;103638.34;;;1.39;100.00
15794;BME280;7999;51.208;4.244;2023-02-10T01:32:59;103648.97;;;1.43;100.00
15794;BME280;7999;51.208;4.244;2023-02-10T01:35:26;103652.03;;;1.49;100.00
15794;BME280;7999;51.208;4.244;2023-02-10T01:37:53;103653.34;;;1.44;100.00
15794;BME280;7999;51.208;4.244;2023-02-10T01:40:23;103652.66;;;1.57;100.00
15794;BME280;7999;51.208;4.244;2023-02-10T01:42:50;103655.97;;;1.56;100.00
15794;BME280;7999;51.208;4.244;2023-02-10T01:45:18;103651.25;;;1.50;100.00
15794;BME280;7999;51.208;4.244;2023-02-10T01:47:45;103651.94;;;1.28;100.00
15794;BME280;7999;51.208;4.244;2023-02-10T01:50:13;103652.44;;;1.34;100.00
15794;BME280;7999;51.208;4.244;2023-02-10T01:52:40;103645.50;;;1.33;100.00
15794;BME280;7999;51.208;4.244;2023-02-10T01:55:09;103641.56;;;1.26;100.00
15794;BME280;7999;51.208;4.244;2023-02-10T01:57:38;103641.16;;;1.32;100.00
15794;BME280;7999;51.208;4.244;2023-02-10T02:00:06;103639.13;;;1.38;100.00
15794;BME280;7999;51.208;4.244;2023-02-10T02:02:40;103647.06;;;1.41;100.00
15794;BME280;7999;51.208;4.244;2023-02-10T02:05:17;103653.53;;;1.58;100.00
15794;BME280;7999;51.208;4.244;2023-02-10T02:07:44;103655.97;;;1.56;100.00
15794;BME280;7999;51.208;4.244;2023-02-10T02:10:13;103650.97;;;1.68;100.00
15794;BME280;7999;51.208;4.244;2023-02-10T02:12:43;103658.91;;;1.71;100.00
15794;BME280;7999;51.208;4.244;2023-02-10T02:15:12;103669.91;;;1.80;100.00
15794;BME280;7999;51.208;4.244;2023-02-10T02:17:42;103668.38;;;1.72;100.00
15794;BME280;7999;51.208;4.244;2023-02-10T02:23:14;103668.03;;;1.67;100.00
15794;BME280;7999;51.208;4.244;2023-02-10T02:25:52;103667.50;;;1.71;100.00
15794;BME280;7999;51.208;4.244;2023-02-10T02:28:25;103664.28;;;1.64;100.00
15794;BME280;7999;51.208;4.244;2023-02-10T02:31:07;103665.19;;;1.64;100.00
15794;BME280;7999;51.208;4.244;2023-02-10T02:33:39;103662.00;;;1.57;100.00
15794;BME280;7999;51.208;4.244;2023-02-10T02:36:10;103664.94;;;1.61;100.00
15794;BME280;7999;51.208;4.244;2023-02-10T02:38:38;103664.31;;;1.53;100.00
15794;BME280;7999;51.208;4.244;2023-02-10T02:41:05;103667.63;;;1.63;100.00
15794;BME280;7999;51.208;4.244;2023-02-10T02:43:32;103668.19;;;1.48;100.00
15794;BME280;7999;51.208;4.244;2023-02-10T02:46:00;103662.16;;;1.48;100.00
15794;BME280;7999;51.208;4.244;2023-02-10T02:48:35;103663.72;;;1.46;100.00
15794;BME280;7999;51.208;4.244;2023-02-10T02:51:11;103662.69;;;1.34;100.00
15794;BME280;7999;51.208;4.244;2023-02-10T02:53:41;103659.47;;;1.36;100.00
15794;BME280;7999;51.208;4.244;2023-02-10T02:56:14;103652.06;;;1.39;100.00
15794;BME280;7999;51.208;4.244;2023-02-10T02:58:50;103661.16;;;1.46;100.00
15794;BME280;7999;51.208;4.244;2023-02-10T03:01:21;103667.44;;;1.39;100.00
15794;BME280;7999;51.208;4.244;2023-02-10T03:03:51;103674.34;;;1.40;100.00
15794;BME280;7999;51.208;4.244;2023-02-10T03:06:20;103668.34;;;1.30;100.00
15794;BME280;7999;51.208;4.244;2023-02-10T03:08:46;103666.16;;;1.24;100.00
15794;BME280;7999;51.208;4.244;2023-02-10T03:11:13;103665.66;;;1.18;100.00
15794;BME280;7999;51.208;4.244;2023-02-10T03:13:40;103673.63;;;1.11;100.00
15794;BME280;7999;51.208;4.244;2023-02-10T03:16:07;103677.19;;;1.13;100.00
15794;BME280;7999;51.208;4.244;2023-02-10T03:18:33;103679.50;;;1.20;100.00
15794;BME280;7999;51.208;4.244;2023-02-10T03:21:00;103689.00;;;1.11;100.00
15794;BME280;7999;51.208;4.244;2023-02-10T03:23:28;103684.63;;;1.20;100.00
15794;BME280;7999;51.208;4.244;2023-02-10T03:25:56;103687.56;;;1.24;100.00
15794;BME280;7999;51.208;4.244;2023-02-10T03:28:23;103686.53;;;1.33;100.00
15794;BME280;7999;51.208;4.244;2023-02-10T03:30:50;103685.25;;;1.38;100.00
15794;BME280;7999;51.208;4.244;2023-02-10T03:33:17;103695.50;;;1.38;100.00
15794;BME280;7999;51.208;4.244;2023-02-10T03:35:45;103692.53;;;1.33;100.00
15794;BME280;7999;51.208;4.244;2023-02-10T03:38:12;103698.56;;;1.34;100.00
15794;BME280;7999;51.208;4.244;2023-02-10T03:40:40;103704.34;;;1.31;100.00
15794;BME280;7999;51.208;4.244;2023-02-10T03:43:07;103703.31;;;1.29;100.00
15794;BME280;7999;51.208;4.244;2023-02-10T03:45:34;103700.34;;;1.35;100.00
15794;BME280;7999;51.208;4.244;2023-02-10T03:48:01;103702.03;;;1.34;100.00
15794;BME280;7999;51.208;4.244;2023-02-10T03:50:27;103710.00;;;1.37;100.00
15794;BME280;7999;51.208;4.244;2023-02-10T03:52:54;103702.53;;;1.30;100.00
15794;BME280;7999;51.208;4.244;2023-02-10T03:55:21;103703.56;;;1.22;100.00
15794;BME280;7999;51.208;4.244;2023-02-10T03:57:49;103711.91;;;1.30;100.00
15794;BME280;7999;51.208;4.244;2023-02-10T04:00:16;103715.13;;;1.37;100.00
15794;BME280;7999;51.208;4.244;2023-02-10T04:02:42;103711.50;;;1.35;100.00
15794;BME280;7999;51.208;4.244;2023-02-10T04:05:09;103716.38;;;1.22;100.00
15794;BME280;7999;51.208;4.244;2023-02-10T04:07:36;103715.88;;;1.26;100.00
15794;BME280;7999;51.208;4.244;2023-02-10T04:10:03;103709.50;;;1.11;100.00
15794;BME280;7999;51.208;4.244;2023-02-10T04:12:30;103714.59;;;1.11;100.00
15794;BME280;7999;51.208;4.244;2023-02-10T04:14:58;103714.22;;;1.16;100.00
15794;BME280;7999;51.208;4.244;2023-02-10T04:17:25;103711.88;;;1.09;100.00
15794;BME280;7999;51.208;4.244;2023-02-10T04:19:51;103721.13;;;0.97;100.00
15794;BME280;7999;51.208;4.244;2023-02-10T04:22:18;103714.72;;;0.92;100.00
15794;BME280;7999;51.208;4.244;2023-02-10T04:24:45;103712.53;;;1.07;100.00
15794;BME280;7999;51.208;4.244;2023-02-10T04:27:11;103721.63;;;1.03;100.00
15794;BME280;7999;51.208;4.244;2023-02-10T04:29:38;103726.88;;;0.95;100.00
15794;BME280;7999;51.208;4.244;2023-02-10T04:32:07;103724.56;;;0.87;100.00
15794;BME280;7999;51.208;4.244;2023-02-10T04:34:34;103727.13;;;0.98;100.00
15794;BME280;7999;51.208;4.244;2023-02-10T04:37:01;103723.03;;;0.89;100.00
15794;BME280;7999;51.208;4.244;2023-02-10T04:39:27;103721.75;;;0.95;100.00
15794;BME280;7999;51.208;4.244;2023-02-10T04:41:54;103711.38;;;1.03;100.00
15794;BME280;7999;51.208;4.244;2023-02-10T04:44:21;103718.16;;;1.03;100.00
15794;BME280;7999;51.208;4.244;2023-02-10T04:46:47;103714.47;;;0.99;100.00
15794;BME280;7999;51.208;4.244;2023-02-10T04:49:16;103715.63;;;1.23;100.00
15794;BME280;7999;51.208;4.244;2023-02-10T04:51:43;103714.88;;;1.14;100.00
15794;BME280;7999;51.208;4.244;2023-02-10T04:54:10;103702.81;;;1.23;100.00
15794;BME280;7999;51.208;4.244;2023-02-10T04:56:37;103707.28;;;1.26;100.00
15794;BME280;7999;51.208;4.244;2023-02-10T04:59:03;103711.25;;;1.32;100.00
15794;BME280;7999;51.208;4.244;2023-02-10T05:01:30;103709.59;;;1.43;100.00
15794;BME280;7999;51.208;4.244;2023-02-10T05:03:57;103708.94;;;1.45;100.00
15794;BME280;7999;51.208;4.244;2023-02-10T05:06:25;103713.56;;;1.49;100.00
15794;BME280;7999;51.208;4.244;2023-02-10T05:08:51;103715.34;;;1.50;100.00
15794;BME280;7999;51.208;4.244;2023-02-10T05:11:18;103720.44;;;1.61;100.00
15794;BME280;7999;51.208;4.244;2023-02-10T05:13:45;103717.41;;;1.65;100.00
15794;BME280;7999;51.208;4.244;2023-02-10T05:16:12;103717.38;;;1.75;100.00
15794;BME280;7999;51.208;4.244;2023-02-10T05:18:40;103722.97;;;1.81;100.00
15794;BME280;7999;51.208;4.244;2023-02-10T05:21:07;103724.53;;;1.79;100.00
15794;BME280;7999;51.208;4.244;2023-02-10T05:23:35;103720.66;;;1.84;100.00
15794;BME280;7999;51.208;4.244;2023-02-10T05:26:01;103720.13;;;1.88;100.00
15794;BME280;7999;51.208;4.244;2023-02-10T05:28:28;103717.69;;;1.90;100.00
15794;BME280;7999;51.208;4.244;2023-02-10T05:30:55;103714.75;;;1.95;100.00
15794;BME280;7999;51.208;4.244;2023-02-10T05:33:22;103710.41;;;1.84;100.00
15794;BME280;7999;51.208;4.244;2023-02-10T05:35:48;103717.06;;;1.82;100.00
15794;BME280;7999;51.208;4.244;2023-02-10T05:38:15;103717.25;;;1.73;100.00
15794;BME280;7999;51.208;4.244;2023-02-10T05:40:43;103712.22;;;1.75;100.00
15794;BME280;7999;51.208;4.244;2023-02-10T05:43:10;103708.94;;;1.66;100.00
15794;BME280;7999;51.208;4.244;2023-02-10T05:45:36;103698.91;;;1.59;100.00
15794;BME280;7999;51.208;4.244;2023-02-10T05:48:03;103694.72;;;1.49;100.00
15794;BME280;7999;51.208;4.244;2023-02-10T05:50:30;103699.22;;;1.41;100.00
15794;BME280;7999;51.208;4.244;2023-02-10T05:52:57;103703.31;;;1.39;100.00
15794;BME280;7999;51.208;4.244;2023-02-10T05:55:23;103702.66;;;1.32;100.00
15794;BME280;7999;51.208;4.244;2023-02-10T05:57:52;103716.78;;;1.27;100.00
15794;BME280;7999;51.208;4.244;2023-02-10T06:00:19;103709.31;;;1.09;100.00
15794;BME280;7999;51.208;4.244;2023-02-10T06:02:46;103714.75;;;1.12;100.00
15794;BME280;7999;51.208;4.244;2023-02-10T06:05:12;103722.56;;;1.14;100.00
15794;BME280;7999;51.208;4.244;2023-02-10T06:07:41;103722.28;;;1.21;100.00
15794;BME280;7999;51.208;4.244;2023-02-10T06:10:08;103709.22;;;1.18;100.00
15794;BME280;7999;51.208;4.244;2023-02-10T06:12:34;103712.78;;;1.30;100.00
15794;BME280;7999;51.208;4.244;2023-02-10T06:15:03;103704.47;;;1.33;100.00
15794;BME280;7999;51.208;4.244;2023-02-10T06:17:32;103703.03;;;1.36;100.00
15794;BME280;7999;51.208;4.244;2023-02-10T06:19:58;103707.66;;;1.30;100.00
15794;BME280;7999;51.208;4.244;2023-02-10T06:22:25;103711.50;;;1.35;100.00
15794;BME280;7999;51.208;4.244;2023-02-10T06:24:52;103715.84;;;1.36;100.00
15794;BME280;7999;51.208;4.244;2023-02-10T06:27:18;103719.97;;;1.44;100.00
15794;BME280;7999;51.208;4.244;2023-02-10T06:29:45;103714.84;;;1.34;100.00
15794;BME280;7999;51.208;4.244;2023-02-10T06:32:14;103717.41;;;1.34;100.00
15794;BME280;7999;51.208;4.244;2023-02-10T06:34:42;103715.63;;;1.43;100.00
15794;BME280;7999;51.208;4.244;2023-02-10T06:37:10;103713.94;;;1.44;100.00
15794;BME280;7999;51.208;4.244;2023-02-10T06:39:37;103715.97;;;1.58;100.00
15794;BME280;7999;51.208;4.244;2023-02-10T06:42:05;103706.25;;;1.44;100.00
15794;BME280;7999;51.208;4.244;2023-02-10T06:44:32;103703.31;;;1.39;100.00
15794;BME280;7999;51.208;4.244;2023-02-10T06:46:58;103711.78;;;1.38;100.00
15794;BME280;7999;51.208;4.244;2023-02-10T06:49:26;103704.88;;;1.37;100.00
15794;BME280;7999;51.208;4.244;2023-02-10T06:51:53;103707.41;;;1.47;100.00
15794;BME280;7999;51.208;4.244;2023-02-10T06:54:20;103710.47;;;1.53;100.00
15794;BME280;7999;51.208;4.244;2023-02-10T06:56:47;103706.91;;;1.41;100.00
15794;BME280;7999;51.208;4.244;2023-02-10T06:59:15;103715.59;;;1.33;100.00
15794;BME280;7999;51.208;4.244;2023-02-10T07:01:41;103716.50;;;1.44;100.00
15794;BME280;7999;51.208;4.244;2023-02-10T07:04:08;103734.59;;;1.45;100.00
15794;BME280;7999;51.208;4.244;2023-02-10T07:06:36;103737.00;;;1.34;100.00
15794;BME280;7999;51.208;4.244;2023-02-10T07:09:03;103737.78;;;1.33;100.00
15794;BME280;7999;51.208;4.244;2023-02-10T07:11:30;103731.50;;;1.29;100.00
15794;BME280;7999;51.208;4.244;2023-02-10T07:13:57;103738.03;;;1.36;100.00
15794;BME280;7999;51.208;4.244;2023-02-10T07:16:24;103742.25;;;1.35;100.00
15794;BME280;7999;51.208;4.244;2023-02-10T07:18:50;103747.16;;;1.22;100.00
15794;BME280;7999;51.208;4.244;2023-02-10T07:21:17;103749.19;;;1.36;100.00
15794;BME280;7999;51.208;4.244;2023-02-10T07:23:45;103753.03;;;1.21;100.00
15794;BME280;7999;51.208;4.244;2023-02-10T07:26:12;103750.47;;;1.11;100.00
15794;BME280;7999;51.208;4.244;2023-02-10T07:28:43;103755.09;;;1.25;100.00
15794;BME280;7999;51.208;4.244;2023-02-10T07:31:09;103752.66;;;1.27;100.00
15794;BME280;7999;51.208;4.244;2023-02-10T07:33:36;103757.38;;;1.32;100.00
15794;BME280;7999;51.208;4.244;2023-02-10T07:36:03;103753.31;;;1.44;100.00
15794;BME280;7999;51.208;4.244;2023-02-10T07:38:31;103750.59;;;1.22;100.00
15794;BME280;7999;51.208;4.244;2023-02-10T07:40:59;103748.66;;;1.30;100.00
15794;BME280;7999;51.208;4.244;2023-02-10T07:43:25;103758.16;;;1.31;100.00
15794;BME280;7999;51.208;4.244;2023-02-10T07:46:00;103762.50;;;1.22;100.00
15794;BME280;7999;51.208;4.244;2023-02-10T07:48:27;103752.78;;;1.28;100.00
15794;BME280;7999;51.208;4.244;2023-02-10T07:50:53;103759.97;;;1.22;100.00
15794;BME280;7999;51.208;4.244;2023-02-10T07:53:20;103764.81;;;1.19;100.00
15794;BME280;7999;51.208;4.244;2023-02-10T07:55:47;103770.19;;;1.32;100.00
15794;BME280;7999;51.208;4.244;2023-02-10T07:58:15;103775.06;;;1.19;100.00
15794;BME280;7999;51.208;4.244;2023-02-10T08:00:42;103778.94;;;1.44;100.00
15794;BME280;7999;51.208;4.244;2023-02-10T08:03:10;103782.50;;;1.26;100.00
15794;BME280;7999;51.208;4.244;2023-02-10T08:05:37;103782.22;;;1.03;100.00
15794;BME280;7999;51.208;4.244;2023-02-10T08:08:04;103771.06;;;1.02;100.00
15794;BME280;7999;51.208;4.244;2023-02-10T08:10:33;103776.31;;;0.93;100.00
15794;BME280;7999;51.208;4.244;2023-02-10T08:13:00;103778.28;;;1.16;100.00
15794;BME280;7999;51.208;4.244;2023-02-10T08:15:28;103770.97;;;1.31;100.00
15794;BME280;7999;51.208;4.244;2023-02-10T08:17:55;103770.72;;;1.48;100.00
15794;BME280;7999;51.208;4.244;2023-02-10T08:20:22;103770.06;;;1.31;100.00
15794;BME280;7999;51.208;4.244;2023-02-10T08:22:48;103776.88;;;1.50;100.00
15794;BME280;7999;51.208;4.244;2023-02-10T08:25:19;103776.59;;;1.58;100.00
15794;BME280;7999;51.208;4.244;2023-02-10T08:27:46;103771.84;;;1.82;100.00
15794;BME280;7999;51.208;4.244;2023-02-10T08:30:12;103764.94;;;1.71;100.00
15794;BME280;7999;51.208;4.244;2023-02-10T08:32:41;103761.47;;;1.81;100.00
15794;BME280;7999;51.208;4.244;2023-02-10T08:35:07;103770.66;;;1.89;100.00
15794;BME280;7999;51.208;4.244;2023-02-10T08:37:34;103784.22;;;2.08;100.00
15794;BME280;7999;51.208;4.244;2023-02-10T08:40:01;103786.50;;;2.15;100.00
15794;BME280;7999;51.208;4.244;2023-02-10T08:42:30;103779.03;;;2.29;100.00
15794;BME280;7999;51.208;4.244;2023-02-10T08:44:57;103765.25;;;2.06;100.00
15794;BME280;7999;51.208;4.244;2023-02-10T08:47:24;103770.56;;;2.30;100.00
15794;BME280;7999;51.208;4.244;2023-02-10T08:49:52;103772.28;;;2.51;100.00
15794;BME280;7999;51.208;4.244;2023-02-10T08:52:18;103767.72;;;2.37;100.00
15794;BME280;7999;51.208;4.244;2023-02-10T08:54:46;103772.13;;;2.17;100.00
15794;BME280;7999;51.208;4.244;2023-02-10T08:57:13;103774.31;;;2.55;100.00
15794;BME280;7999;51.208;4.244;2023-02-10T08:59:39;103762.66;;;2.70;100.00
15794;BME280;7999;51.208;4.244;2023-02-10T09:02:06;103774.56;;;3.02;100.00
15794;BME280;7999;51.208;4.244;2023-02-10T09:04:33;103764.91;;;3.78;100.00
15794;BME280;7999;51.208;4.244;2023-02-10T09:07:01;103762.88;;;3.51;100.00
15794;BME280;7999;51.208;4.244;2023-02-10T09:09:28;103749.22;;;3.52;100.00
15794;BME280;7999;51.208;4.244;2023-02-10T09:11:54;103757.75;;;3.74;100.00
15794;BME280;7999;51.208;4.244;2023-02-10T09:14:21;103759.56;;;4.10;100.00
15794;BME280;7999;51.208;4.244;2023-02-10T09:16:48;103748.38;;;4.10;100.00
15794;BME280;7999;51.208;4.244;2023-02-10T09:19:15;103748.38;;;4.10;100.00
15794;BME280;7999;51.208;4.244;2023-02-10T09:21:42;103749.06;;;4.92;100.00
15794;BME280;7999;51.208;4.244;2023-02-10T09:24:10;103752.38;;;4.41;100.00
15794;BME280;7999;51.208;4.244;2023-02-10T09:26:37;103755.25;;;4.57;100.00
15794;BME280;7999;51.208;4.244;2023-02-10T09:29:03;103755.41;;;4.47;100.00
15794;BME280;7999;51.208;4.244;2023-02-10T09:31:30;103751.88;;;4.58;100.00
15794;BME280;7999;51.208;4.244;2023-02-10T09:33:59;103759.53;;;4.45;100.00
15794;BME280;7999;51.208;4.244;2023-02-10T09:36:25;103760.53;;;4.84;100.00
15794;BME280;7999;51.208;4.244;2023-02-10T09:38:54;103769.66;;;4.79;100.00
15794;BME280;7999;51.208;4.244;2023-02-10T09:41:25;103757.81;;;4.57;100.00
15794;BME280;7999;51.208;4.244;2023-02-10T09:43:57;103764.34;;;4.89;100.00
15794;BME280;7999;51.208;4.244;2023-02-10T09:46:30;103761.19;;;4.93;100.00
15794;BME280;7999;51.208;4.244;2023-02-10T09:49:04;103772.28;;;4.55;100.00
15794;BME280;7999;51.208;4.244;2023-02-10T09:51:36;103763.69;;;4.80;100.00
15794;BME280;7999;51.208;4.244;2023-02-10T09:54:07;103770.97;;;4.49;100.00
15794;BME280;7999;51.208;4.244;2023-02-10T09:56:36;103771.84;;;4.38;100.00
15794;BME280;7999;51.208;4.244;2023-02-10T09:59:04;103766.94;;;4.41;100.00
15794;BME280;7999;51.208;4.244;2023-02-10T10:01:34;103767.16;;;4.44;100.00
15794;BME280;7999;51.208;4.244;2023-02-10T10:04:04;103782.75;;;4.22;100.00
15794;BME280;7999;51.208;4.244;2023-02-10T10:06:33;103779.28;;;4.21;100.00
15794;BME280;7999;51.208;4.244;2023-02-10T10:09:05;103790.00;;;3.92;100.00
15794;BME280;7999;51.208;4.244;2023-02-10T10:11:41;103792.94;;;3.85;100.00
15794;BME280;7999;51.208;4.244;2023-02-10T10:14:13;103799.31;;;3.90;100.00
15794;BME280;7999;51.208;4.244;2023-02-10T10:16:48;103805.47;;;3.92;100.00
15794;BME280;7999;51.208;4.244;2023-02-10T10:19:22;103800.06;;;3.78;100.00
15794;BME280;7999;51.208;4.244;2023-02-10T10:21:53;103804.13;;;3.97;100.00
15794;BME280;7999;51.208;4.244;2023-02-10T10:24:32;103789.78;;;3.89;100.00
15794;BME280;7999;51.208;4.244;2023-02-10T10:27:07;103798.06;;;3.85;100.00
15794;BME280;7999;51.208;4.244;2023-02-10T10:29:39;103799.41;;;4.03;100.00
15794;BME280;7999;51.208;4.244;2023-02-10T10:32:12;103814.28;;;4.08;100.00
15794;BME280;7999;51.208;4.244;2023-02-10T10:34:40;103809.47;;;3.89;100.00
15794;BME280;7999;51.208;4.244;2023-02-10T10:37:11;103819.63;;;3.76;100.00
15794;BME280;7999;51.208;4.244;2023-02-10T10:39:39;103814.63;;;3.89;100.00
15794;BME280;7999;51.208;4.244;2023-02-10T10:42:10;103827.38;;;3.87;100.00
15794;BME280;7999;51.208;4.244;2023-02-10T10:44:39;103827.56;;;3.79;100.00
15794;BME280;7999;51.208;4.244;2023-02-10T10:47:11;103827.38;;;3.87;100.00
15794;BME280;7999;51.208;4.244;2023-02-10T10:49:39;103814.19;;;3.94;100.00
15794;BME280;7999;51.208;4.244;2023-02-10T10:52:11;103812.34;;;3.70;100.00
15794;BME280;7999;51.208;4.244;2023-02-10T10:54:44;103814.59;;;3.65;100.00
15794;BME280;7999;51.208;4.244;2023-02-10T10:57:12;103817.50;;;3.70;100.00
15794;BME280;7999;51.208;4.244;2023-02-10T10:59:40;103821.75;;;3.69;100.00
15794;BME280;7999;51.208;4.244;2023-02-10T11:02:11;103815.88;;;3.49;100.00
15794;BME280;7999;51.208;4.244;2023-02-10T11:04:39;103808.09;;;3.59;100.00
15794;BME280;7999;51.208;4.244;2023-02-10T11:07:16;103806.53;;;3.61;100.00
15794;BME280;7999;51.208;4.244;2023-02-10T11:09:48;103799.03;;;3.64;100.00
15794;BME280;7999;51.208;4.244;2023-02-10T11:12:20;103793.34;;;3.68;100.00
15794;BME280;7999;51.208;4.244;2023-02-10T11:14:48;103802.09;;;3.93;100.00
15794;BME280;7999;51.208;4.244;2023-02-10T11:17:20;103793.59;;;3.94;100.00
15794;BME280;7999;51.208;4.244;2023-02-10T11:19:54;103785.53;;;4.01;100.00
15794;BME280;7999;51.208;4.244;2023-02-10T11:22:21;103785.97;;;4.08;100.00
15794;BME280;7999;51.208;4.244;2023-02-10T11:24:49;103770.88;;;4.00;100.00
15794;BME280;7999;51.208;4.244;2023-02-10T11:27:17;103778.59;;;4.24;100.00
15794;BME280;7999;51.208;4.244;2023-02-10T11:29:45;103774.44;;;4.26;100.00
15794;BME280;7999;51.208;4.244;2023-02-10T11:32:16;103780.84;;;4.19;100.00
15794;BME280;7999;51.208;4.244;2023-02-10T11:34:43;103760.00;;;4.28;100.00
15794;BME280;7999;51.208;4.244;2023-02-10T11:37:12;103759.53;;;4.45;100.00
15794;BME280;7999;51.208;4.244;2023-02-10T11:39:40;103737.69;;;4.52;100.00
15794;BME280;7999;51.208;4.244;2023-02-10T11:42:09;103743.47;;;4.61;100.00
15794;BME280;7999;51.208;4.244;2023-02-10T11:44:38;103751.81;;;4.82;100.00
15794;BME280;7999;51.208;4.244;2023-02-10T11:47:12;103757.97;;;4.84;100.00
15794;BME280;7999;51.208;4.244;2023-02-10T11:49:42;103756.25;;;4.96;100.00
15794;BME280;7999;51.208;4.244;2023-02-10T11:52:09;103751.53;;;5.02;100.00
15794;BME280;7999;51.208;4.244;2023-02-10T11:54:36;103747.94;;;5.00;100.00
15794;BME280;7999;51.208;4.244;2023-02-10T11:57:08;103746.75;;;4.95;100.00
15794;BME280;7999;51.208;4.244;2023-02-10T11:59:58;103732.19;;;5.34;100.00
15794;BME280;7999;51.208;4.244;2023-02-10T12:02:49;103718.09;;;5.28;100.00
15794;BME280;7999;51.208;4.244;2023-02-10T12:05:23;103734.38;;;5.41;100.00
15794;BME280;7999;51.208;4.244;2023-02-10T12:07:56;103726.84;;;5.44;100.00
15794;BME280;7999;51.208;4.244;2023-02-10T12:10:26;103732.84;;;5.56;100.00
15794;BME280;7999;51.208;4.244;2023-02-10T12:12:56;103730.25;;;5.56;100.00
15794;BME280;7999;51.208;4.244;2023-02-10T12:15:33;103719.13;;;5.57;100.00
15794;BME280;7999;51.208;4.244;2023-02-10T12:18:05;103729.25;;;5.54;100.00
15794;BME280;7999;51.208;4.244;2023-02-10T12:20:38;103734.31;;;5.66;100.00
15794;BME280;7999;51.208;4.244;2023-02-10T12:25:55;103731.59;;;6.02;100.00
15794;BME280;7999;51.208;4.244;2023-02-10T12:28:28;103724.34;;;6.10;100.00
15794;BME280;7999;51.208;4.244;2023-02-10T12:31:00;103715.41;;;6.05;100.00
15794;BME280;7999;51.208;4.244;2023-02-10T12:33:35;103715.63;;;6.08;100.00
15794;BME280;7999;51.208;4.244;2023-02-10T12:36:10;103709.63;;;6.22;100.00
15794;BME280;7999;51.208;4.244;2023-02-10T12:38:43;103712.94;;;6.47;100.00
15794;BME280;7999;51.208;4.244;2023-02-10T12:41:15;103709.03;;;6.54;100.00
15794;BME280;7999;51.208;4.244;2023-02-10T12:43:47;103702.97;;;6.67;100.00
15794;BME280;7999;51.208;4.244;2023-02-10T12:46:23;103694.34;;;6.81;100.00
15794;BME280;7999;51.208;4.244;2023-02-10T12:49:00;103696.88;;;6.94;100.00
15794;BME280;7999;51.208;4.244;2023-02-10T12:51:36;103696.16;;;6.97;100.00
15794;BME280;7999;51.208;4.244;2023-02-10T12:54:07;103683.94;;;6.94;100.00
15794;BME280;7999;51.208;4.244;2023-02-10T12:56:37;103679.94;;;6.99;100.00
15794;BME280;7999;51.208;4.244;2023-02-10T12:59:10;103689.66;;;7.03;100.00
15794;BME280;7999;51.208;4.244;2023-02-10T13:01:42;103686.38;;;7.06;100.00
15794;BME280;7999;51.208;4.244;2023-02-10T13:04:13;103666.75;;;7.09;100.00
15794;BME280;7999;51.208;4.244;2023-02-10T13:06:44;103671.03;;;7.24;100.00
15794;BME280;7999;51.208;4.244;2023-02-10T13:09:16;103668.47;;;7.24;100.00
15794;BME280;7999;51.208;4.244;2023-02-10T13:11:45;103662.53;;;7.11;100.00
15794;BME280;7999;51.208;4.244;2023-02-10T13:14:16;103664.06;;;6.93;100.00